createdAt,value
2017-04-02T00:05:06.985Z,1011.181
2017-04-02T00:08:01.918Z,1011.300
2017-04-02T00:10:57.019Z,1011.319
2017-04-02T00:13:51.907Z,1011.308
2017-04-02T00:16:46.786Z,1011.227
2017-04-02T00:19:41.826Z,1011.218
2017-04-02T00:22:36.886Z,1011.211
2017-04-02T00:25:32.027Z,1011.251
2017-04-02T00:28:27.007Z,1011.197
2017-04-02T00:31:21.985Z,1011.124
2017-04-02T00:34:17.127Z,1011.084
2017-04-02T00:37:11.857Z,1011.030
2017-04-02T00:40:06.823Z,1011.037
2017-04-02T00:45:57.250Z,1011.087
2017-04-02T00:48:52.280Z,1011.140
2017-04-02T00:51:47.320Z,1011.119
2017-04-02T00:54:42.265Z,1011.201
2017-04-02T00:57:37.156Z,1011.131
2017-04-02T01:00:32.109Z,1011.140
2017-04-02T01:03:26.981Z,1011.160
2017-04-02T01:06:21.964Z,1011.073
2017-04-02T01:09:16.887Z,1011.057
2017-04-02T01:15:06.787Z,1011.113
2017-04-02T01:18:01.633Z,1011.128
2017-04-02T01:20:56.596Z,1011.172
2017-04-02T01:26:46.796Z,1011.202
2017-04-02T01:29:41.592Z,1011.103
2017-04-02T01:32:36.647Z,1011.091
2017-04-02T01:35:31.711Z,1011.060
2017-04-02T01:38:26.563Z,1011.161
2017-04-02T01:41:21.574Z,1011.269
2017-04-02T01:47:11.554Z,1011.412
2017-04-02T01:50:06.498Z,1011.457
2017-04-02T01:53:01.340Z,1011.497
2017-04-02T01:58:51.344Z,1011.661
2017-04-02T02:01:46.366Z,1011.776
2017-04-02T02:04:41.245Z,1011.848
2017-04-02T02:07:36.660Z,1011.900
2017-04-02T02:10:31.510Z,1011.986
2017-04-02T02:13:26.522Z,1012.065
2017-04-02T02:16:21.525Z,1012.146
2017-04-02T02:19:16.412Z,1012.128
2017-04-02T02:25:06.211Z,1012.090
2017-04-02T02:28:01.285Z,1012.128
2017-04-02T02:30:56.222Z,1012.186
2017-04-02T02:33:51.126Z,1012.253
2017-04-02T02:39:40.902Z,1012.409
2017-04-02T02:42:35.801Z,1012.457
2017-04-02T02:45:30.689Z,1012.487
2017-04-02T02:48:25.644Z,1012.486
2017-04-02T02:54:15.633Z,1012.533
2017-04-02T02:57:10.563Z,1012.557
2017-04-02T03:00:05.520Z,1012.672
2017-04-02T03:03:00.494Z,1012.617
2017-04-02T03:05:55.406Z,1012.649
2017-04-02T03:08:50.349Z,1012.690
2017-04-02T03:11:45.347Z,1012.696
2017-04-02T03:14:40.579Z,1012.734
2017-04-02T03:17:35.507Z,1012.768
2017-04-02T03:20:30.415Z,1012.788
2017-04-02T03:23:25.441Z,1012.813
2017-04-02T03:26:20.298Z,1012.838
2017-04-02T03:29:15.269Z,1012.892
2017-04-02T03:32:10.075Z,1012.980
2017-04-02T03:35:05.054Z,1013.017
2017-04-02T03:37:59.991Z,1013.041
2017-04-02T03:40:54.890Z,1013.018
2017-04-02T03:43:49.824Z,1012.986
2017-04-02T03:46:44.869Z,1013.005
2017-04-02T03:49:39.752Z,1013.057
2017-04-02T03:52:34.675Z,1013.105
2017-04-02T03:55:29.576Z,1013.147
2017-04-02T03:58:24.772Z,1013.165
2017-04-02T04:01:19.654Z,1013.162
2017-04-02T04:04:14.582Z,1013.129
2017-04-02T04:07:09.376Z,1013.184
2017-04-02T04:10:04.377Z,1013.194
2017-04-02T04:12:59.284Z,1013.175
2017-04-02T04:15:54.108Z,1013.204
2017-04-02T04:18:48.993Z,1013.201
2017-04-02T04:21:43.844Z,1013.199
2017-04-02T04:24:38.764Z,1013.219
2017-04-02T04:27:33.705Z,1013.301
2017-04-02T04:30:28.501Z,1013.348
2017-04-02T04:33:23.388Z,1013.367
2017-04-02T04:36:18.191Z,1013.379
2017-04-02T04:39:13.106Z,1013.416
2017-04-02T04:42:07.963Z,1013.490
2017-04-02T04:45:02.716Z,1013.519
2017-04-02T04:47:57.576Z,1013.551
2017-04-02T04:50:52.554Z,1013.560
2017-04-02T04:53:47.310Z,1013.567
2017-04-02T04:56:42.082Z,1013.554
2017-04-02T05:05:26.614Z,1013.788
2017-04-02T05:08:21.484Z,1013.923
2017-04-02T05:11:16.439Z,1014.024
2017-04-02T05:17:06.131Z,1014.070
2017-04-02T05:20:01.015Z,1014.144
2017-04-02T05:22:55.941Z,1014.186
2017-04-02T05:25:50.828Z,1014.227
2017-04-02T05:31:40.676Z,1014.356
2017-04-02T05:34:35.488Z,1014.409
2017-04-02T05:37:30.453Z,1014.450
2017-04-02T05:40:25.374Z,1014.475
2017-04-02T05:43:20.225Z,1014.529
2017-04-02T05:46:15.064Z,1014.589
2017-04-02T05:49:09.859Z,1014.688
2017-04-02T05:52:04.859Z,1014.769
2017-04-02T05:57:54.630Z,1014.861
2017-04-02T06:00:49.560Z,1014.836
2017-04-02T06:03:44.518Z,1014.887
2017-04-02T06:06:39.585Z,1014.884
2017-04-02T06:09:34.611Z,1014.901
2017-04-02T06:12:29.636Z,1015.055
2017-04-02T06:15:24.713Z,1015.181
2017-04-02T06:18:19.697Z,1015.203
2017-04-02T06:24:09.695Z,1015.084
2017-04-02T06:27:04.685Z,1015.009
2017-04-02T06:29:59.840Z,1015.107
2017-04-02T06:32:54.703Z,1015.307
2017-04-02T06:35:49.536Z,1015.500
2017-04-02T06:38:44.188Z,1015.565
2017-04-02T06:41:38.912Z,1015.662
2017-04-02T06:44:33.767Z,1015.659
2017-04-02T06:47:28.448Z,1015.710
2017-04-02T06:50:22.944Z,1015.743
2017-04-02T06:53:17.569Z,1015.785
2017-04-02T06:56:12.137Z,1015.775
2017-04-02T06:59:06.779Z,1015.702
2017-04-02T07:02:01.433Z,1015.712
2017-04-02T07:04:56.138Z,1015.651
2017-04-02T07:07:50.949Z,1015.639
2017-04-02T07:10:46.020Z,1015.696
2017-04-02T07:13:41.456Z,1015.708
2017-04-02T07:16:36.424Z,1015.708
2017-04-02T07:19:30.129Z,1015.811
2017-04-02T07:22:23.550Z,1015.838
2017-04-02T07:25:16.573Z,1015.955
2017-04-02T07:28:10.118Z,1016.016
2017-04-02T07:31:03.923Z,1016.084
2017-04-02T07:33:57.879Z,1016.174
2017-04-02T07:36:52.471Z,1016.234
2017-04-02T07:39:47.426Z,1016.314
2017-04-02T07:42:41.697Z,1016.417
2017-04-02T07:45:36.455Z,1016.456
2017-04-02T07:48:31.376Z,1016.525
2017-04-02T07:51:26.401Z,1016.580
2017-04-02T07:54:21.433Z,1016.631
2017-04-02T07:57:16.488Z,1016.674
2017-04-02T08:00:11.426Z,1016.693
2017-04-02T08:03:06.591Z,1016.686
2017-04-02T08:06:01.436Z,1016.676
2017-04-02T08:08:56.431Z,1016.679
2017-04-02T08:11:51.462Z,1016.680
2017-04-02T08:14:46.559Z,1016.735
2017-04-02T08:17:41.723Z,1016.762
2017-04-02T08:23:32.442Z,1016.802
2017-04-02T08:26:27.798Z,1016.783
2017-04-02T08:29:22.902Z,1016.839
2017-04-02T08:32:18.035Z,1016.864
2017-04-02T08:35:12.695Z,1016.906
2017-04-02T08:38:07.779Z,1016.944
2017-04-02T08:41:03.299Z,1016.926
2017-04-02T08:43:59.149Z,1016.915
2017-04-02T08:46:54.957Z,1017.003
2017-04-02T08:49:50.746Z,1017.091
2017-04-02T08:52:46.396Z,1017.156
2017-04-02T08:55:41.765Z,1017.217
2017-04-02T08:58:37.033Z,1017.174
2017-04-02T09:01:31.992Z,1017.229
2017-04-02T09:04:26.955Z,1017.285
2017-04-02T09:07:21.654Z,1017.294
2017-04-02T09:10:16.435Z,1017.326
2017-04-02T09:13:11.349Z,1017.375
2017-04-02T09:16:06.438Z,1017.428
2017-04-02T09:19:01.345Z,1017.484
2017-04-02T09:21:56.339Z,1017.590
2017-04-02T09:24:51.494Z,1017.612
2017-04-02T09:27:46.614Z,1017.641
2017-04-02T09:30:41.206Z,1017.662
2017-04-02T09:33:36.451Z,1017.765
2017-04-02T09:36:31.069Z,1017.909
2017-04-02T09:39:26.112Z,1017.963
2017-04-02T09:42:21.355Z,1018.040
2017-04-02T09:48:11.052Z,1018.156
2017-04-02T09:51:05.757Z,1018.140
2017-04-02T09:54:00.797Z,1018.149
2017-04-02T09:56:55.990Z,1018.145
2017-04-02T09:59:51.130Z,1018.154
2017-04-02T10:02:46.350Z,1018.133
2017-04-02T10:05:41.467Z,1018.145
2017-04-02T10:08:36.776Z,1018.181
2017-04-02T10:11:31.678Z,1018.168
2017-04-02T10:14:26.586Z,1018.158
2017-04-02T10:17:22.140Z,1018.180
2017-04-02T10:20:17.770Z,1018.126
2017-04-02T10:23:13.307Z,1018.111
2017-04-02T10:26:08.802Z,1018.186
2017-04-02T10:29:03.745Z,1018.218
2017-04-02T10:31:58.883Z,1018.209
2017-04-02T10:34:54.273Z,1018.204
2017-04-02T10:37:49.395Z,1018.144
2017-04-02T10:40:44.779Z,1018.146
2017-04-02T10:43:40.156Z,1018.225
2017-04-02T10:46:35.694Z,1018.236
2017-04-02T10:49:30.995Z,1018.228
2017-04-02T10:52:26.309Z,1018.200
2017-04-02T10:55:21.671Z,1018.161
2017-04-02T10:58:17.087Z,1018.203
2017-04-02T11:01:12.472Z,1018.189
2017-04-02T11:04:07.680Z,1018.218
2017-04-02T11:07:02.713Z,1018.240
2017-04-02T11:09:57.378Z,1018.288
2017-04-02T11:12:52.333Z,1018.301
2017-04-02T11:15:47.633Z,1018.378
2017-04-02T11:18:42.867Z,1018.450
2017-04-02T11:21:37.890Z,1018.461
2017-04-02T11:27:27.823Z,1018.477
2017-04-02T11:30:22.723Z,1018.503
2017-04-02T11:33:17.247Z,1018.500
2017-04-02T11:36:11.516Z,1018.477
2017-04-02T11:39:06.166Z,1018.509
2017-04-02T11:42:00.715Z,1018.559
2017-04-02T11:44:56.041Z,1018.628
2017-04-02T11:47:51.381Z,1018.656
2017-04-02T11:50:45.740Z,1018.631
2017-04-02T11:53:40.476Z,1018.597
2017-04-02T11:56:35.607Z,1018.567
2017-04-02T11:59:30.741Z,1018.534
2017-04-02T12:02:26.043Z,1018.549
2017-04-02T12:05:21.046Z,1018.560
2017-04-02T12:08:15.772Z,1018.597
2017-04-02T12:11:10.167Z,1018.623
2017-04-02T12:14:04.354Z,1018.613
2017-04-02T12:16:58.601Z,1018.599
2017-04-02T12:19:53.217Z,1018.650
2017-04-02T12:22:48.356Z,1018.695
2017-04-02T12:25:43.281Z,1018.748
2017-04-02T12:28:37.925Z,1018.776
2017-04-02T12:31:32.650Z,1018.753
2017-04-02T12:34:27.365Z,1018.711
2017-04-02T12:37:22.137Z,1018.767
2017-04-02T12:40:16.998Z,1018.719
2017-04-02T12:43:11.817Z,1018.736
2017-04-02T12:46:07.132Z,1018.763
2017-04-02T12:49:02.235Z,1018.797
2017-04-02T12:54:50.530Z,1018.817
2017-04-02T12:57:45.550Z,1018.757
2017-04-02T13:00:40.922Z,1018.769
2017-04-02T13:03:36.184Z,1018.698
2017-04-02T13:06:31.568Z,1018.664
2017-04-02T13:09:26.740Z,1018.679
2017-04-02T13:12:21.995Z,1018.671
2017-04-02T13:15:16.940Z,1018.657
2017-04-02T13:18:11.320Z,1018.649
2017-04-02T13:21:06.297Z,1018.699
2017-04-02T13:26:54.414Z,1018.682
2017-04-02T13:29:48.660Z,1018.685
2017-04-02T13:32:42.914Z,1018.706
2017-04-02T13:35:37.896Z,1018.738
2017-04-02T13:38:33.180Z,1018.771
2017-04-02T13:41:28.573Z,1018.785
2017-04-02T13:47:19.119Z,1018.813
2017-04-02T13:50:14.325Z,1018.781
2017-04-02T13:56:04.615Z,1018.862
2017-04-02T13:58:59.799Z,1018.871
2017-04-02T14:01:55.179Z,1018.875
2017-04-02T14:04:50.308Z,1018.943
2017-04-02T14:07:45.518Z,1018.928
2017-04-02T14:10:40.679Z,1018.975
2017-04-02T14:13:35.859Z,1019.016
2017-04-02T14:16:30.938Z,1019.007
2017-04-02T14:19:25.582Z,1019.024
2017-04-02T14:22:20.504Z,1019.085
2017-04-02T14:25:15.577Z,1019.092
2017-04-02T14:28:10.670Z,1019.079
2017-04-02T14:31:05.762Z,1019.076
2017-04-02T14:34:00.996Z,1019.052
2017-04-02T14:36:56.128Z,1019.138
2017-04-02T14:39:51.226Z,1019.120
2017-04-02T14:42:46.396Z,1019.189
2017-04-02T14:45:41.659Z,1019.248
2017-04-02T14:48:48.188Z,1019.251
2017-04-02T14:51:38.682Z,1019.317
2017-04-02T14:54:33.618Z,1019.362
2017-04-02T14:57:28.884Z,1019.416
2017-04-02T15:00:23.964Z,1019.434
2017-04-02T15:03:19.081Z,1019.448
2017-04-02T15:06:14.397Z,1019.429
2017-04-02T15:09:09.605Z,1019.460
2017-04-02T15:12:04.633Z,1019.498
2017-04-02T15:14:59.730Z,1019.442
2017-04-02T15:17:54.798Z,1019.489
2017-04-02T15:20:49.744Z,1019.540
2017-04-02T15:23:44.775Z,1019.550
2017-04-02T15:26:39.852Z,1019.602
2017-04-02T15:29:34.974Z,1019.643
2017-04-02T15:32:29.991Z,1019.635
2017-04-02T15:35:25.053Z,1019.642
2017-04-02T15:38:19.898Z,1019.668
2017-04-02T15:41:14.859Z,1019.673
2017-04-02T15:44:09.838Z,1019.725
2017-04-02T15:47:04.476Z,1019.724
2017-04-02T15:49:59.504Z,1019.746
2017-04-02T15:52:54.801Z,1019.764
2017-04-02T15:55:49.660Z,1019.810
2017-04-02T15:58:44.969Z,1019.851
2017-04-02T16:01:40.024Z,1019.856
2017-04-02T16:04:35.211Z,1019.895
2017-04-02T16:07:30.204Z,1019.960
2017-04-02T16:10:25.303Z,1020.018
2017-04-02T16:13:20.366Z,1020.011
2017-04-02T16:16:15.382Z,1020.027
2017-04-02T16:19:09.666Z,1020.032
2017-04-02T16:22:03.479Z,1020.074
2017-04-02T16:24:57.397Z,1020.088
2017-04-02T16:27:52.031Z,1020.104
2017-04-02T16:30:45.847Z,1020.145
2017-04-02T16:33:39.387Z,1020.167
2017-04-02T16:39:27.989Z,1020.184
2017-04-02T16:42:22.158Z,1020.194
2017-04-02T16:45:16.262Z,1020.226
2017-04-02T16:48:10.656Z,1020.219
2017-04-02T16:51:04.624Z,1020.237
2017-04-02T16:53:58.617Z,1020.280
2017-04-02T16:56:52.239Z,1020.323
2017-04-02T17:02:40.084Z,1020.351
2017-04-02T17:05:34.799Z,1020.367
2017-04-02T17:08:29.724Z,1020.427
2017-04-02T17:11:24.597Z,1020.511
2017-04-02T17:14:19.517Z,1020.566
2017-04-02T17:17:14.281Z,1020.632
2017-04-02T17:20:09.038Z,1020.595
2017-04-02T17:23:03.880Z,1020.647
2017-04-02T17:25:58.729Z,1020.695
2017-04-02T17:28:53.324Z,1020.750
2017-04-02T17:31:48.009Z,1020.765
2017-04-02T17:34:42.611Z,1020.779
2017-04-02T17:37:38.012Z,1020.770
2017-04-02T17:40:32.891Z,1020.803
2017-04-02T17:43:27.805Z,1020.857
2017-04-02T17:46:22.622Z,1020.883
2017-04-02T17:49:17.490Z,1020.927
2017-04-02T17:52:12.364Z,1020.948
2017-04-02T17:55:07.280Z,1021.017
2017-04-02T17:58:02.347Z,1021.006
2017-04-02T18:00:57.366Z,1021.008
2017-04-02T18:03:52.459Z,1021.028
2017-04-02T18:06:47.455Z,1021.100
2017-04-02T18:09:42.421Z,1021.183
2017-04-02T18:12:37.383Z,1021.217
2017-04-02T18:15:32.439Z,1021.275
2017-04-02T18:18:27.486Z,1021.331
2017-04-02T18:21:22.408Z,1021.397
2017-04-02T18:24:17.187Z,1021.425
2017-04-02T18:27:11.934Z,1021.463
2017-04-02T18:30:06.819Z,1021.490
2017-04-02T18:33:01.701Z,1021.532
2017-04-02T18:35:56.306Z,1021.550
2017-04-02T18:38:51.145Z,1021.577
2017-04-02T18:41:45.931Z,1021.599
2017-04-02T18:44:40.776Z,1021.640
2017-04-02T18:47:35.585Z,1021.645
2017-04-02T18:50:30.377Z,1021.660
2017-04-02T18:53:25.154Z,1021.685
2017-04-02T18:56:19.944Z,1021.762
2017-04-02T18:59:14.733Z,1021.791
2017-04-02T19:02:09.644Z,1021.836
2017-04-02T19:07:59.110Z,1021.913
2017-04-02T19:10:53.845Z,1021.919
2017-04-02T19:13:48.439Z,1021.971
2017-04-02T19:16:43.169Z,1022.016
2017-04-02T19:19:37.849Z,1022.035
2017-04-02T19:22:32.527Z,1022.059
2017-04-02T19:25:27.411Z,1022.119
2017-04-02T19:28:22.175Z,1022.148
2017-04-02T19:31:16.855Z,1022.201
2017-04-02T19:34:11.623Z,1022.222
2017-04-02T19:37:06.236Z,1022.240
2017-04-02T19:42:55.634Z,1022.288
2017-04-02T19:45:50.139Z,1022.307
2017-04-02T19:48:44.684Z,1022.355
2017-04-02T19:51:39.034Z,1022.337
2017-04-02T19:54:33.424Z,1022.374
2017-04-02T19:57:27.768Z,1022.404
2017-04-02T20:00:22.270Z,1022.391
2017-04-02T20:03:16.784Z,1022.404
2017-04-02T20:06:11.228Z,1022.458
2017-04-02T20:09:05.679Z,1022.464
2017-04-02T20:11:59.973Z,1022.478
2017-04-02T20:14:54.421Z,1022.476
2017-04-02T20:17:48.747Z,1022.485
2017-04-02T20:20:43.089Z,1022.493
2017-04-02T20:23:37.454Z,1022.504
2017-04-02T20:26:31.715Z,1022.519
2017-04-02T20:29:26.109Z,1022.548
2017-04-02T20:32:20.295Z,1022.575
2017-04-02T20:38:09.001Z,1022.597
2017-04-02T20:41:03.348Z,1022.621
2017-04-02T20:43:57.704Z,1022.612
2017-04-02T20:46:51.978Z,1022.630
2017-04-02T20:49:46.240Z,1022.635
2017-04-02T20:52:40.469Z,1022.698
2017-04-02T20:55:34.687Z,1022.747
2017-04-02T20:58:28.961Z,1022.759
2017-04-02T21:01:23.171Z,1022.822
2017-04-02T21:04:17.428Z,1022.881
2017-04-02T21:07:11.515Z,1022.896
2017-04-02T21:10:05.749Z,1022.905
2017-04-02T21:13:00.004Z,1022.934
2017-04-02T21:15:54.222Z,1022.944
2017-04-02T21:18:48.527Z,1022.920
2017-04-02T21:21:42.726Z,1022.927
2017-04-02T21:24:36.870Z,1022.960
2017-04-02T21:30:25.387Z,1022.944
2017-04-02T21:33:19.621Z,1022.924
2017-04-02T21:36:14.188Z,1022.944
2017-04-02T21:39:08.544Z,1022.942
2017-04-02T21:42:03.106Z,1022.913
2017-04-02T21:44:57.580Z,1022.938
2017-04-02T21:47:52.041Z,1022.949
2017-04-02T21:53:41.242Z,1023.017
2017-04-02T21:56:35.685Z,1023.043
2017-04-02T21:59:30.156Z,1023.049
2017-04-02T22:02:24.590Z,1023.125
2017-04-02T22:05:18.961Z,1023.146
2017-04-02T22:11:07.624Z,1023.204
2017-04-02T22:14:02.011Z,1023.255
2017-04-02T22:16:56.427Z,1023.249
2017-04-02T22:19:50.821Z,1023.226
2017-04-02T22:22:45.102Z,1023.229
2017-04-02T22:25:39.485Z,1023.223
2017-04-02T22:31:28.118Z,1023.210
2017-04-02T22:37:16.595Z,1023.156
2017-04-02T22:40:10.904Z,1023.170
2017-04-02T22:43:05.185Z,1023.199
2017-04-02T22:45:59.471Z,1023.199
2017-04-02T22:48:53.720Z,1023.237
2017-04-02T22:51:48.021Z,1023.235
2017-04-02T22:54:42.291Z,1023.274
2017-04-02T22:57:36.509Z,1023.274
2017-04-02T23:03:25.382Z,1023.329
2017-04-02T23:06:19.768Z,1023.379
2017-04-02T23:09:14.110Z,1023.392
2017-04-02T23:12:08.396Z,1023.403
2017-04-02T23:15:02.611Z,1023.412
2017-04-02T23:17:57.482Z,1023.445
2017-04-02T23:23:46.190Z,1023.430
2017-04-02T23:26:40.459Z,1023.431
2017-04-02T23:29:34.709Z,1023.440
2017-04-02T23:32:28.928Z,1023.430
2017-04-02T23:35:23.142Z,1023.440
2017-04-02T23:38:17.251Z,1023.427
2017-04-02T23:41:11.438Z,1023.409
2017-04-02T23:44:05.528Z,1023.414
2017-04-02T23:49:53.307Z,1023.439
2017-04-02T23:52:47.283Z,1023.473
2017-04-02T23:55:41.230Z,1023.513
2017-04-02T23:58:35.344Z,1023.520
